Timbo, Brazil
Current Conditions -  °F | °C
As of 8:00 PM on Friday 19 Dec 2014 (Local Time) from SBNF Reporting Station
Broken Clouds Broken Clouds  
Wind Chill: 75°   Ceiling: 4800
Heat Index: 75°   Visibility: 6mi
Dew Point: 73°   Wind: 6mph
Humidity: 94%   Direction: 130°SE
Pressure: 29.77"   Gusts: NA
Location:  26.82°S, 49.27°W
Report Text: SBNF 192200Z 13005KT 9999 SCT008 SCT020 BKN048 24/23 Q1008 RETSRA
Loading
Personal Weather Stations






























Interactive Weather Map New forecast layout! Learn more

10-Day Weather Forecast

Advertisements
Track Severe Weather on mobile